Time,TemperatureF,DewpointF,PressureIn,WindDirection,WindDirectionDegrees,WindSpeedMPH,WindSpeedGustMPH,Humidity,HourlyPrecipIn,Conditions,Clouds,dailyrainin,SoftwareType,DateUTC
2013-04-27 00:00:00,58.4,55.8,30.19,West,270,0.0,2.0,91,0.00,,---,0.00,VWS V14.00,2013-04-27 07:00:00,
2013-04-27 00:30:00,58.0,55.4,30.19,West,270,0.0,1.0,91,0.00,,---,0.00,VWS V14.00,2013-04-27 07:30:00,
2013-04-27 01:00:00,57.3,54.7,30.18,West,270,0.0,0.0,91,0.00,,---,0.00,VWS V14.00,2013-04-27 08:00:00,
2013-04-27 01:30:00,56.1,53.5,30.18,West,270,0.0,0.0,91,0.00,,---,0.00,VWS V14.00,2013-04-27 08:30:00,
2013-04-27 02:00:00,55.7,52.8,30.17,West,270,0.0,0.0,90,0.00,,---,0.00,VWS V14.00,2013-04-27 09:00:00,
2013-04-27 02:30:00,55.7,52.8,30.16,West,270,0.0,0.0,90,0.00,,---,0.00,VWS V14.00,2013-04-27 09:30:00,
2013-04-27 03:00:00,55.6,52.7,30.16,West,270,0.0,0.0,90,0.00,,---,0.00,VWS V14.00,2013-04-27 10:00:00,
2013-04-27 03:30:00,55.6,53.0,30.16,West,270,0.0,1.0,91,0.00,,---,0.00,VWS V14.00,2013-04-27 10:30:00,
2013-04-27 04:00:00,55.6,53.3,30.16,WNW,292,0.0,1.0,92,0.00,,---,0.00,VWS V14.00,2013-04-27 11:00:00,
2013-04-27 04:30:00,56.2,54.2,30.16,NW,315,0.0,1.0,93,0.00,,---,0.00,VWS V14.00,2013-04-27 11:30:00,
2013-04-27 05:00:00,56.6,54.6,30.15,NW,315,0.0,1.0,93,0.00,,---,0.00,VWS V14.00,2013-04-27 12:00:00,
2013-04-27 05:30:00,56.5,54.5,30.15,NW,315,0.0,0.0,93,0.00,,---,0.00,VWS V14.00,2013-04-27 12:30:00,
2013-04-27 06:00:00,56.2,54.2,30.16,NW,315,0.0,1.0,93,0.00,,---,0.00,VWS V14.00,2013-04-27 13:00:00,
2013-04-27 06:30:00,56.5,54.5,30.16,NW,315,0.0,0.0,93,0.00,,---,0.00,VWS V14.00,2013-04-27 13:30:00,
2013-04-27 07:00:00,56.9,54.9,30.16,NW,315,0.0,0.0,93,0.00,,---,0.00,VWS V14.00,2013-04-27 14:00:00,
2013-04-27 07:30:00,57.0,55.0,30.16,NW,315,0.0,2.0,93,0.00,,---,0.00,VWS V14.00,2013-04-27 14:30:00,
2013-04-27 08:00:00,57.5,55.2,30.17,NW,315,0.0,2.0,92,0.00,,---,0.00,VWS V14.00,2013-04-27 15:00:00,
2013-04-27 08:30:00,58.6,56.6,30.18,NW,315,0.0,2.0,93,0.00,,---,0.00,VWS V14.00,2013-04-27 15:30:00,
2013-04-27 09:00:00,59.1,56.2,30.18,NW,315,0.0,2.0,90,0.00,,---,0.00,VWS V14.00,2013-04-27 16:00:00,
2013-04-27 09:30:00,60.2,57.0,30.18,NW,315,0.0,3.0,89,0.00,,---,0.00,VWS V14.00,2013-04-27 16:30:00,
2013-04-27 10:00:00,60.7,56.8,30.18,West,270,0.0,3.0,87,0.00,,---,0.00,VWS V14.00,2013-04-27 17:00:00,
2013-04-27 10:30:00,62.6,57.7,30.17,West,270,1.0,3.0,84,0.00,,---,0.00,VWS V14.00,2013-04-27 17:30:00,
2013-04-27 11:00:00,64.9,58.2,30.17,West,270,1.0,3.0,79,0.00,,---,0.00,VWS V14.00,2013-04-27 18:00:00,
2013-04-27 11:30:00,64.7,58.7,30.17,WSW,248,1.0,3.0,81,0.00,,---,0.00,VWS V14.00,2013-04-27 18:30:00,
2013-04-27 12:00:00,65.5,58.5,30.16,SSE,158,1.0,4.0,78,0.00,,---,0.00,VWS V14.00,2013-04-27 19:00:00,
2013-04-27 12:30:00,66.9,59.8,30.14,West,270,1.0,6.0,78,0.00,,---,0.00,VWS V14.00,2013-04-27 19:30:00,
2013-04-27 13:00:00,68.5,59.9,30.13,SW,225,0.0,3.0,74,0.00,,---,0.00,VWS V14.00,2013-04-27 20:00:00,
2013-04-27 13:30:00,68.0,59.0,30.12,West,270,1.0,5.0,73,0.00,,---,0.00,VWS V14.00,2013-04-27 20:30:00,
2013-04-27 14:00:00,65.4,57.7,30.11,SE,135,1.0,4.0,76,0.00,,---,0.00,VWS V14.00,2013-04-27 21:00:00,
2013-04-27 14:30:00,66.4,59.0,30.10,SSE,158,1.0,4.0,77,0.00,,---,0.00,VWS V14.00,2013-04-27 21:30:00,
2013-04-27 15:00:00,66.5,59.1,30.08,SSE,158,1.0,2.0,77,0.00,,---,0.00,VWS V14.00,2013-04-27 22:00:00,
2013-04-27 15:30:00,68.1,59.5,30.07,West,270,1.0,5.0,74,0.00,,---,0.00,VWS V14.00,2013-04-27 22:30:00,
2013-04-27 16:00:00,65.5,58.5,30.06,West,270,3.0,8.0,78,0.00,,---,0.00,VWS V14.00,2013-04-27 23:00:00,
2013-04-27 16:30:00,64.5,58.9,30.06,West,270,4.0,8.0,82,0.00,,---,0.00,VWS V14.00,2013-04-27 23:30:00,
2013-04-27 17:00:00,64.2,58.6,30.05,West,270,5.0,9.0,82,0.00,,---,0.00,VWS V14.00,2013-04-28 00:00:00,
2013-04-27 17:30:00,63.2,58.0,30.05,West,270,5.0,9.0,83,0.00,,---,0.00,VWS V14.00,2013-04-28 00:30:00,
2013-04-27 18:00:00,63.0,58.4,30.05,West,270,5.0,9.0,85,0.00,,---,0.00,VWS V14.00,2013-04-28 01:00:00,
2013-04-27 18:30:00,62.2,58.3,30.04,West,270,5.0,9.0,87,0.00,,---,0.00,VWS V14.00,2013-04-28 01:30:00,
2013-04-27 19:00:00,61.4,57.5,30.03,West,270,5.0,8.0,87,0.00,,---,0.00,VWS V14.00,2013-04-28 02:00:00,
2013-04-27 19:30:00,61.2,57.6,30.03,West,270,5.0,9.0,88,0.00,,---,0.00,VWS V14.00,2013-04-28 02:30:00,
2013-04-27 20:00:00,60.7,57.4,30.04,West,270,4.0,7.0,89,0.00,,---,0.00,VWS V14.00,2013-04-28 03:00:00,
2013-04-27 20:30:00,60.3,57.4,30.05,West,270,4.0,7.0,90,0.00,,---,0.00,VWS V14.00,2013-04-28 03:30:00,
2013-04-27 21:00:00,59.9,57.0,30.06,West,270,1.0,5.0,90,0.00,,---,0.00,VWS V14.00,2013-04-28 04:00:00,
2013-04-27 21:30:00,59.6,56.7,30.07,West,270,0.0,2.0,90,0.00,,---,0.00,VWS V14.00,2013-04-28 04:30:00,
2013-04-27 22:00:00,59.5,56.6,30.08,WSW,248,0.0,3.0,90,0.00,,---,0.00,VWS V14.00,2013-04-28 05:00:00,
2013-04-27 22:30:00,59.3,56.1,30.07,SW,225,0.0,2.0,89,0.00,,---,0.00,VWS V14.00,2013-04-28 05:30:00,
2013-04-27 23:00:00,59.3,56.1,30.07,SW,225,0.0,2.0,89,0.00,,---,0.00,VWS V14.00,2013-04-28 06:00:00,
2013-04-27 23:30:00,59.7,56.8,30.07,SW,225,0.0,2.0,90,0.00,,---,0.00,VWS V14.00,2013-04-28 06:30:00,